sensor_id;sensor_type;location;lat;lon;timestamp;P1;durP1;ratioP1;P2;durP2;ratioP2
78732;SDS011;68056;52.530;5.454;2023-07-20T00:01:59;1.00;;;0.65;;
78732;SDS011;68056;52.530;5.454;2023-07-20T00:04:25;1.20;;;0.90;;
78732;SDS011;68056;52.530;5.454;2023-07-20T00:06:50;1.55;;;0.80;;
78732;SDS011;68056;52.530;5.454;2023-07-20T00:09:16;3.38;;;1.08;;
78732;SDS011;68056;52.530;5.454;2023-07-20T00:11:47;1.25;;;1.00;;
78732;SDS011;68056;52.530;5.454;2023-07-20T00:14:16;1.48;;;0.90;;
78732;SDS011;68056;52.530;5.454;2023-07-20T00:16:41;2.03;;;0.82;;
78732;SDS011;68056;52.530;5.454;2023-07-20T00:19:07;0.70;;;0.68;;
78732;SDS011;68056;52.530;5.454;2023-07-20T00:21:33;1.63;;;0.70;;
78732;SDS011;68056;52.530;5.454;2023-07-20T00:23:59;1.05;;;0.95;;
78732;SDS011;68056;52.530;5.454;2023-07-20T00:26:24;1.58;;;1.08;;
78732;SDS011;68056;52.530;5.454;2023-07-20T00:28:50;2.75;;;0.88;;
78732;SDS011;68056;52.530;5.454;2023-07-20T00:31:16;1.33;;;0.82;;
78732;SDS011;68056;52.530;5.454;2023-07-20T00:33:42;1.00;;;0.70;;
78732;SDS011;68056;52.530;5.454;2023-07-20T00:36:07;0.82;;;0.80;;
78732;SDS011;68056;52.530;5.454;2023-07-20T00:38:33;0.80;;;0.57;;
78732;SDS011;68056;52.530;5.454;2023-07-20T00:40:59;0.80;;;0.80;;
78732;SDS011;68056;52.530;5.454;2023-07-20T00:43:24;1.40;;;0.75;;
78732;SDS011;68056;52.530;5.454;2023-07-20T00:45:50;1.05;;;0.68;;
78732;SDS011;68056;52.530;5.454;2023-07-20T00:48:16;1.52;;;0.70;;
78732;SDS011;68056;52.530;5.454;2023-07-20T00:50:41;0.40;;;0.40;;
78732;SDS011;68056;52.530;5.454;2023-07-20T00:53:09;0.68;;;0.52;;
78732;SDS011;68056;52.530;5.454;2023-07-20T00:55:35;0.70;;;0.70;;
78732;SDS011;68056;52.530;5.454;2023-07-20T00:58:01;1.30;;;0.80;;
78732;SDS011;68056;52.530;5.454;2023-07-20T01:00:26;1.00;;;0.73;;
78732;SDS011;68056;52.530;5.454;2023-07-20T01:02:52;1.20;;;0.60;;
78732;SDS011;68056;52.530;5.454;2023-07-20T01:05:18;0.73;;;0.73;;
78732;SDS011;68056;52.530;5.454;2023-07-20T01:08:18;0.80;;;0.50;;
78732;SDS011;68056;52.530;5.454;2023-07-20T01:10:56;1.50;;;0.85;;
78732;SDS011;68056;52.530;5.454;2023-07-20T01:13:26;0.90;;;0.68;;
78732;SDS011;68056;52.530;5.454;2023-07-20T01:16:02;0.77;;;0.65;;
78732;SDS011;68056;52.530;5.454;2023-07-20T01:18:27;0.88;;;0.77;;
78732;SDS011;68056;52.530;5.454;2023-07-20T01:20:59;0.68;;;0.68;;
78732;SDS011;68056;52.530;5.454;2023-07-20T01:26:47;1.70;;;1.10;;
78732;SDS011;68056;52.530;5.454;2023-07-20T01:29:22;2.03;;;1.10;;
78732;SDS011;68056;52.530;5.454;2023-07-20T01:31:52;2.08;;;0.90;;
78732;SDS011;68056;52.530;5.454;2023-07-20T01:34:20;5.50;;;1.30;;
78732;SDS011;68056;52.530;5.454;2023-07-20T01:36:47;1.27;;;1.10;;
78732;SDS011;68056;52.530;5.454;2023-07-20T01:39:17;1.83;;;1.20;;
78732;SDS011;68056;52.530;5.454;2023-07-20T01:41:44;1.20;;;0.77;;
78732;SDS011;68056;52.530;5.454;2023-07-20T01:44:10;1.40;;;0.80;;
78732;SDS011;68056;52.530;5.454;2023-07-20T01:46:37;2.17;;;0.82;;
78732;SDS011;68056;52.530;5.454;2023-07-20T01:49:03;1.90;;;0.98;;
78732;SDS011;68056;52.530;5.454;2023-07-20T01:51:28;1.02;;;0.73;;
78732;SDS011;68056;52.530;5.454;2023-07-20T01:53:54;1.00;;;0.63;;
78732;SDS011;68056;52.530;5.454;2023-07-20T01:56:20;1.15;;;0.50;;
78732;SDS011;68056;52.530;5.454;2023-07-20T01:58:46;1.10;;;0.60;;
78732;SDS011;68056;52.530;5.454;2023-07-20T02:01:11;2.05;;;0.88;;
78732;SDS011;68056;52.530;5.454;2023-07-20T02:03:37;0.90;;;0.70;;
78732;SDS011;68056;52.530;5.454;2023-07-20T02:06:02;1.58;;;0.70;;
78732;SDS011;68056;52.530;5.454;2023-07-20T02:08:28;1.85;;;0.73;;
78732;SDS011;68056;52.530;5.454;2023-07-20T02:10:54;0.50;;;0.50;;
78732;SDS011;68056;52.530;5.454;2023-07-20T02:13:19;1.42;;;0.70;;
78732;SDS011;68056;52.530;5.454;2023-07-20T02:15:45;1.00;;;0.80;;
78732;SDS011;68056;52.530;5.454;2023-07-20T02:18:12;2.35;;;0.80;;
78732;SDS011;68056;52.530;5.454;2023-07-20T02:20:37;0.93;;;0.85;;
78732;SDS011;68056;52.530;5.454;2023-07-20T02:23:05;0.68;;;0.63;;
78732;SDS011;68056;52.530;5.454;2023-07-20T02:25:31;1.00;;;0.73;;
78732;SDS011;68056;52.530;5.454;2023-07-20T02:27:56;0.93;;;0.70;;
78732;SDS011;68056;52.530;5.454;2023-07-20T02:30:23;1.38;;;0.80;;
78732;SDS011;68056;52.530;5.454;2023-07-20T02:32:48;0.47;;;0.47;;
78732;SDS011;68056;52.530;5.454;2023-07-20T02:35:14;1.15;;;0.80;;
78732;SDS011;68056;52.530;5.454;2023-07-20T02:37:40;0.70;;;0.70;;
78732;SDS011;68056;52.530;5.454;2023-07-20T02:40:06;0.60;;;0.60;;
78732;SDS011;68056;52.530;5.454;2023-07-20T02:42:33;0.95;;;0.70;;
78732;SDS011;68056;52.530;5.454;2023-07-20T02:44:58;0.82;;;0.60;;
78732;SDS011;68056;52.530;5.454;2023-07-20T02:47:24;1.40;;;0.70;;
78732;SDS011;68056;52.530;5.454;2023-07-20T02:49:50;1.02;;;0.55;;
78732;SDS011;68056;52.530;5.454;2023-07-20T02:52:15;0.85;;;0.60;;
78732;SDS011;68056;52.530;5.454;2023-07-20T02:54:41;0.75;;;0.68;;
78732;SDS011;68056;52.530;5.454;2023-07-20T02:57:07;1.80;;;0.70;;
78732;SDS011;68056;52.530;5.454;2023-07-20T02:59:34;0.45;;;0.40;;
78732;SDS011;68056;52.530;5.454;2023-07-20T03:01:59;0.70;;;0.70;;
78732;SDS011;68056;52.530;5.454;2023-07-20T03:04:28;1.98;;;0.55;;
78732;SDS011;68056;52.530;5.454;2023-07-20T03:06:53;0.77;;;0.50;;
78732;SDS011;68056;52.530;5.454;2023-07-20T03:09:19;0.50;;;0.50;;
78732;SDS011;68056;52.530;5.454;2023-07-20T03:11:45;0.70;;;0.50;;
78732;SDS011;68056;52.530;5.454;2023-07-20T03:14:10;0.43;;;0.43;;
78732;SDS011;68056;52.530;5.454;2023-07-20T03:16:36;0.75;;;0.50;;
78732;SDS011;68056;52.530;5.454;2023-07-20T03:19:02;1.90;;;0.60;;
78732;SDS011;68056;52.530;5.454;2023-07-20T03:21:28;0.85;;;0.57;;
78732;SDS011;68056;52.530;5.454;2023-07-20T03:23:54;0.82;;;0.60;;
78732;SDS011;68056;52.530;5.454;2023-07-20T03:26:20;1.00;;;0.63;;
78732;SDS011;68056;52.530;5.454;2023-07-20T03:28:45;0.95;;;0.50;;
78732;SDS011;68056;52.530;5.454;2023-07-20T03:31:11;0.95;;;0.50;;
78732;SDS011;68056;52.530;5.454;2023-07-20T03:33:37;1.20;;;0.60;;
78732;SDS011;68056;52.530;5.454;2023-07-20T03:36:03;0.80;;;0.70;;
78732;SDS011;68056;52.530;5.454;2023-07-20T03:38:28;1.23;;;0.52;;
78732;SDS011;68056;52.530;5.454;2023-07-20T03:43:24;0.77;;;0.60;;
78732;SDS011;68056;52.530;5.454;2023-07-20T03:45:51;0.90;;;0.65;;
78732;SDS011;68056;52.530;5.454;2023-07-20T03:48:18;0.90;;;0.70;;
78732;SDS011;68056;52.530;5.454;2023-07-20T03:50:46;2.30;;;0.90;;
78732;SDS011;68056;52.530;5.454;2023-07-20T03:53:13;1.20;;;0.95;;
78732;SDS011;68056;52.530;5.454;2023-07-20T03:55:40;0.60;;;0.50;;
78732;SDS011;68056;52.530;5.454;2023-07-20T03:58:07;1.67;;;0.80;;
78732;SDS011;68056;52.530;5.454;2023-07-20T04:00:33;2.10;;;0.93;;
78732;SDS011;68056;52.530;5.454;2023-07-20T04:02:59;0.85;;;0.57;;
78732;SDS011;68056;52.530;5.454;2023-07-20T04:05:24;1.20;;;0.50;;
78732;SDS011;68056;52.530;5.454;2023-07-20T04:07:51;0.73;;;0.63;;
78732;SDS011;68056;52.530;5.454;2023-07-20T04:10:17;1.48;;;0.70;;
78732;SDS011;68056;52.530;5.454;2023-07-20T04:12:43;1.00;;;0.63;;
78732;SDS011;68056;52.530;5.454;2023-07-20T04:15:09;0.77;;;0.77;;
78732;SDS011;68056;52.530;5.454;2023-07-20T04:17:35;0.93;;;0.70;;
78732;SDS011;68056;52.530;5.454;2023-07-20T04:20:01;0.88;;;0.80;;
78732;SDS011;68056;52.530;5.454;2023-07-20T04:22:28;2.22;;;0.90;;
78732;SDS011;68056;52.530;5.454;2023-07-20T04:24:53;1.42;;;1.00;;
78732;SDS011;68056;52.530;5.454;2023-07-20T04:27:19;1.10;;;0.90;;
78732;SDS011;68056;52.530;5.454;2023-07-20T04:29:45;1.40;;;0.80;;
78732;SDS011;68056;52.530;5.454;2023-07-20T04:32:10;2.13;;;1.00;;
78732;SDS011;68056;52.530;5.454;2023-07-20T04:34:36;1.88;;;0.90;;
78732;SDS011;68056;52.530;5.454;2023-07-20T04:37:02;1.00;;;0.90;;
78732;SDS011;68056;52.530;5.454;2023-07-20T04:39:29;1.73;;;1.60;;
78732;SDS011;68056;52.530;5.454;2023-07-20T04:41:55;1.52;;;1.02;;
78732;SDS011;68056;52.530;5.454;2023-07-20T04:44:21;1.30;;;0.95;;
78732;SDS011;68056;52.530;5.454;2023-07-20T04:46:47;1.33;;;1.23;;
78732;SDS011;68056;52.530;5.454;2023-07-20T04:49:12;1.52;;;0.95;;
78732;SDS011;68056;52.530;5.454;2023-07-20T04:51:38;1.92;;;1.48;;
78732;SDS011;68056;52.530;5.454;2023-07-20T04:54:04;1.25;;;1.15;;
78732;SDS011;68056;52.530;5.454;2023-07-20T04:56:30;1.38;;;1.20;;
78732;SDS011;68056;52.530;5.454;2023-07-20T04:58:55;1.88;;;1.30;;
78732;SDS011;68056;52.530;5.454;2023-07-20T05:01:22;2.78;;;1.30;;
78732;SDS011;68056;52.530;5.454;2023-07-20T05:03:48;1.55;;;1.42;;
78732;SDS011;68056;52.530;5.454;2023-07-20T05:06:14;1.48;;;0.95;;
78732;SDS011;68056;52.530;5.454;2023-07-20T05:08:39;1.33;;;1.10;;
78732;SDS011;68056;52.530;5.454;2023-07-20T05:11:05;2.13;;;1.42;;
78732;SDS011;68056;52.530;5.454;2023-07-20T05:13:32;1.35;;;1.10;;
78732;SDS011;68056;52.530;5.454;2023-07-20T05:15:58;1.48;;;1.10;;
78732;SDS011;68056;52.530;5.454;2023-07-20T05:18:23;2.10;;;1.77;;
78732;SDS011;68056;52.530;5.454;2023-07-20T05:20:50;2.33;;;1.73;;
78732;SDS011;68056;52.530;5.454;2023-07-20T05:23:16;3.80;;;1.95;;
78732;SDS011;68056;52.530;5.454;2023-07-20T05:25:43;1.50;;;1.10;;
78732;SDS011;68056;52.530;5.454;2023-07-20T05:28:08;1.23;;;1.13;;
78732;SDS011;68056;52.530;5.454;2023-07-20T05:30:34;2.50;;;1.20;;
78732;SDS011;68056;52.530;5.454;2023-07-20T05:33:00;1.63;;;1.30;;
78732;SDS011;68056;52.530;5.454;2023-07-20T05:35:26;1.70;;;1.20;;
78732;SDS011;68056;52.530;5.454;2023-07-20T05:37:51;2.08;;;1.27;;
78732;SDS011;68056;52.530;5.454;2023-07-20T05:40:18;1.20;;;1.10;;
78732;SDS011;68056;52.530;5.454;2023-07-20T05:42:47;1.77;;;1.10;;
78732;SDS011;68056;52.530;5.454;2023-07-20T05:45:17;1.80;;;1.20;;
78732;SDS011;68056;52.530;5.454;2023-07-20T05:47:43;2.47;;;1.30;;
78732;SDS011;68056;52.530;5.454;2023-07-20T05:50:08;2.05;;;1.08;;
78732;SDS011;68056;52.530;5.454;2023-07-20T05:52:35;1.40;;;1.05;;
78732;SDS011;68056;52.530;5.454;2023-07-20T05:55:00;1.67;;;1.40;;
78732;SDS011;68056;52.530;5.454;2023-07-20T05:57:26;2.65;;;1.20;;
78732;SDS011;68056;52.530;5.454;2023-07-20T05:59:52;1.95;;;1.20;;
78732;SDS011;68056;52.530;5.454;2023-07-20T06:02:18;1.00;;;0.82;;
78732;SDS011;68056;52.530;5.454;2023-07-20T06:04:44;1.05;;;0.60;;
78732;SDS011;68056;52.530;5.454;2023-07-20T06:07:10;0.95;;;0.70;;
78732;SDS011;68056;52.530;5.454;2023-07-20T06:09:36;1.17;;;0.70;;
78732;SDS011;68056;52.530;5.454;2023-07-20T06:12:01;0.50;;;0.50;;
78732;SDS011;68056;52.530;5.454;2023-07-20T06:14:27;0.85;;;0.50;;
78732;SDS011;68056;52.530;5.454;2023-07-20T06:16:53;3.13;;;0.75;;
78732;SDS011;68056;52.530;5.454;2023-07-20T06:19:18;0.55;;;0.43;;
78732;SDS011;68056;52.530;5.454;2023-07-20T06:21:44;0.40;;;0.40;;
78732;SDS011;68056;52.530;5.454;2023-07-20T06:24:10;2.30;;;0.52;;
78732;SDS011;68056;52.530;5.454;2023-07-20T06:26:35;1.55;;;1.17;;
78732;SDS011;68056;52.530;5.454;2023-07-20T06:29:04;1.02;;;0.60;;
78732;SDS011;68056;52.530;5.454;2023-07-20T06:33:57;0.95;;;0.60;;
78732;SDS011;68056;52.530;5.454;2023-07-20T06:36:22;0.40;;;0.35;;
78732;SDS011;68056;52.530;5.454;2023-07-20T06:38:48;2.45;;;0.50;;
78732;SDS011;68056;52.530;5.454;2023-07-20T06:41:13;1.10;;;0.45;;
78732;SDS011;68056;52.530;5.454;2023-07-20T06:43:39;0.65;;;0.52;;
78732;SDS011;68056;52.530;5.454;2023-07-20T06:46:05;0.57;;;0.52;;
78732;SDS011;68056;52.530;5.454;2023-07-20T06:48:30;0.50;;;0.50;;
78732;SDS011;68056;52.530;5.454;2023-07-20T06:50:56;1.60;;;0.50;;
78732;SDS011;68056;52.530;5.454;2023-07-20T06:53:21;0.60;;;0.60;;
78732;SDS011;68056;52.530;5.454;2023-07-20T06:55:47;1.33;;;0.60;;
78732;SDS011;68056;52.530;5.454;2023-07-20T06:58:13;1.10;;;0.60;;
78732;SDS011;68056;52.530;5.454;2023-07-20T07:00:39;0.93;;;0.55;;
78732;SDS011;68056;52.530;5.454;2023-07-20T07:03:04;1.25;;;0.50;;
78732;SDS011;68056;52.530;5.454;2023-07-20T07:05:30;0.40;;;0.30;;
78732;SDS011;68056;52.530;5.454;2023-07-20T07:07:56;1.88;;;0.68;;
78732;SDS011;68056;52.530;5.454;2023-07-20T07:10:21;1.30;;;0.40;;
78732;SDS011;68056;52.530;5.454;2023-07-20T07:12:47;0.65;;;0.47;;
78732;SDS011;68056;52.530;5.454;2023-07-20T07:15:12;0.85;;;0.40;;
78732;SDS011;68056;52.530;5.454;2023-07-20T07:17:38;1.42;;;0.90;;
78732;SDS011;68056;52.530;5.454;2023-07-20T07:20:04;1.08;;;0.45;;
78732;SDS011;68056;52.530;5.454;2023-07-20T07:22:30;0.55;;;0.40;;
78732;SDS011;68056;52.530;5.454;2023-07-20T07:24:56;0.63;;;0.30;;
78732;SDS011;68056;52.530;5.454;2023-07-20T07:27:22;1.45;;;0.47;;
78732;SDS011;68056;52.530;5.454;2023-07-20T07:29:47;0.73;;;0.43;;
78732;SDS011;68056;52.530;5.454;2023-07-20T07:32:14;0.60;;;0.60;;
78732;SDS011;68056;52.530;5.454;2023-07-20T07:34:40;1.75;;;0.85;;
78732;SDS011;68056;52.530;5.454;2023-07-20T07:37:05;0.85;;;0.30;;
78732;SDS011;68056;52.530;5.454;2023-07-20T07:39:31;1.15;;;0.40;;
78732;SDS011;68056;52.530;5.454;2023-07-20T07:41:57;0.50;;;0.38;;
78732;SDS011;68056;52.530;5.454;2023-07-20T07:44:23;0.57;;;0.45;;
78732;SDS011;68056;52.530;5.454;2023-07-20T07:46:49;0.70;;;0.50;;
78732;SDS011;68056;52.530;5.454;2023-07-20T07:49:15;0.70;;;0.40;;
78732;SDS011;68056;52.530;5.454;2023-07-20T07:51:41;0.70;;;0.57;;
78732;SDS011;68056;52.530;5.454;2023-07-20T07:54:06;0.85;;;0.50;;
78732;SDS011;68056;52.530;5.454;2023-07-20T07:56:32;1.60;;;0.45;;
78732;SDS011;68056;52.530;5.454;2023-07-20T07:58:57;0.43;;;0.40;;
78732;SDS011;68056;52.530;5.454;2023-07-20T08:01:23;0.77;;;0.50;;
78732;SDS011;68056;52.530;5.454;2023-07-20T08:03:49;2.42;;;0.40;;
78732;SDS011;68056;52.530;5.454;2023-07-20T08:06:14;1.08;;;0.30;;
78732;SDS011;68056;52.530;5.454;2023-07-20T08:08:40;0.50;;;0.32;;
78732;SDS011;68056;52.530;5.454;2023-07-20T08:11:07;1.33;;;0.45;;
78732;SDS011;68056;52.530;5.454;2023-07-20T08:13:33;0.70;;;0.35;;
78732;SDS011;68056;52.530;5.454;2023-07-20T08:15:59;1.23;;;0.30;;
78732;SDS011;68056;52.530;5.454;2023-07-20T08:18:27;3.00;;;0.70;;
78732;SDS011;68056;52.530;5.454;2023-07-20T08:20:53;1.85;;;0.80;;
78732;SDS011;68056;52.530;5.454;2023-07-20T08:23:19;1.25;;;0.35;;
78732;SDS011;68056;52.530;5.454;2023-07-20T08:25:45;1.15;;;0.40;;
78732;SDS011;68056;52.530;5.454;2023-07-20T08:28:11;0.85;;;0.40;;
78732;SDS011;68056;52.530;5.454;2023-07-20T08:30:40;0.63;;;0.40;;
78732;SDS011;68056;52.530;5.454;2023-07-20T08:35:33;1.10;;;0.30;;
78732;SDS011;68056;52.530;5.454;2023-07-20T08:37:58;1.45;;;0.55;;
78732;SDS011;68056;52.530;5.454;2023-07-20T08:40:24;1.17;;;0.55;;
78732;SDS011;68056;52.530;5.454;2023-07-20T08:42:50;0.60;;;0.45;;
78732;SDS011;68056;52.530;5.454;2023-07-20T08:45:15;0.75;;;0.40;;
78732;SDS011;68056;52.530;5.454;2023-07-20T08:47:43;0.60;;;0.40;;
78732;SDS011;68056;52.530;5.454;2023-07-20T08:50:10;0.70;;;0.43;;
78732;SDS011;68056;52.530;5.454;2023-07-20T08:52:37;0.47;;;0.38;;
78732;SDS011;68056;52.530;5.454;2023-07-20T08:55:03;0.32;;;0.28;;
78732;SDS011;68056;52.530;5.454;2023-07-20T08:57:30;0.77;;;0.55;;
78732;SDS011;68056;52.530;5.454;2023-07-20T08:59:58;0.40;;;0.30;;
78732;SDS011;68056;52.530;5.454;2023-07-20T09:02:29;0.68;;;0.55;;
78732;SDS011;68056;52.530;5.454;2023-07-20T09:04:59;0.82;;;0.57;;
78732;SDS011;68056;52.530;5.454;2023-07-20T09:07:25;0.52;;;0.40;;
78732;SDS011;68056;52.530;5.454;2023-07-20T09:09:51;0.40;;;0.40;;
78732;SDS011;68056;52.530;5.454;2023-07-20T09:12:16;0.85;;;0.55;;
78732;SDS011;68056;52.530;5.454;2023-07-20T09:14:43;1.40;;;0.32;;
78732;SDS011;68056;52.530;5.454;2023-07-20T09:17:12;0.40;;;0.30;;
78732;SDS011;68056;52.530;5.454;2023-07-20T09:19:39;0.82;;;0.60;;
78732;SDS011;68056;52.530;5.454;2023-07-20T09:22:10;0.60;;;0.43;;
78732;SDS011;68056;52.530;5.454;2023-07-20T09:24:36;1.70;;;0.70;;
78732;SDS011;68056;52.530;5.454;2023-07-20T09:27:01;1.00;;;0.45;;
78732;SDS011;68056;52.530;5.454;2023-07-20T09:29:30;0.57;;;0.43;;
78732;SDS011;68056;52.530;5.454;2023-07-20T09:32:02;1.63;;;0.80;;
78732;SDS011;68056;52.530;5.454;2023-07-20T09:36:56;0.68;;;0.32;;
78732;SDS011;68056;52.530;5.454;2023-07-20T09:39:25;1.67;;;0.50;;
78732;SDS011;68056;52.530;5.454;2023-07-20T09:41:51;0.50;;;0.40;;
78732;SDS011;68056;52.530;5.454;2023-07-20T09:44:17;0.40;;;0.35;;
78732;SDS011;68056;52.530;5.454;2023-07-20T09:49:12;1.27;;;0.40;;
78732;SDS011;68056;52.530;5.454;2023-07-20T09:51:39;0.40;;;0.40;;
78732;SDS011;68056;52.530;5.454;2023-07-20T09:54:06;1.05;;;0.50;;
78732;SDS011;68056;52.530;5.454;2023-07-20T09:56:32;0.80;;;0.55;;
78732;SDS011;68056;52.530;5.454;2023-07-20T09:58:58;0.95;;;0.50;;
78732;SDS011;68056;52.530;5.454;2023-07-20T10:01:24;0.40;;;0.40;;
78732;SDS011;68056;52.530;5.454;2023-07-20T10:03:52;0.40;;;0.40;;
78732;SDS011;68056;52.530;5.454;2023-07-20T10:06:28;0.93;;;0.50;;
78732;SDS011;68056;52.530;5.454;2023-07-20T10:09:00;0.90;;;0.50;;
78732;SDS011;68056;52.530;5.454;2023-07-20T10:11:29;2.60;;;1.10;;
78732;SDS011;68056;52.530;5.454;2023-07-20T10:13:59;0.30;;;0.30;;
78732;SDS011;68056;52.530;5.454;2023-07-20T10:16:29;0.47;;;0.47;;
78732;SDS011;68056;52.530;5.454;2023-07-20T10:19:57;1.20;;;0.52;;
78732;SDS011;68056;52.530;5.454;2023-07-20T10:22:00;1.55;;;0.60;;
78732;SDS011;68056;52.530;5.454;2023-07-20T10:24:29;0.68;;;0.40;;
78732;SDS011;68056;52.530;5.454;2023-07-20T10:26:56;1.20;;;0.60;;
78732;SDS011;68056;52.530;5.454;2023-07-20T10:29:23;0.45;;;0.35;;
78732;SDS011;68056;52.530;5.454;2023-07-20T10:31:49;1.25;;;0.50;;
78732;SDS011;68056;52.530;5.454;2023-07-20T10:34:15;0.40;;;0.30;;
78732;SDS011;68056;52.530;5.454;2023-07-20T10:36:45;2.00;;;0.50;;
78732;SDS011;68056;52.530;5.454;2023-07-20T10:39:23;0.90;;;0.63;;
78732;SDS011;68056;52.530;5.454;2023-07-20T10:42:09;0.85;;;0.47;;
78732;SDS011;68056;52.530;5.454;2023-07-20T10:44:38;0.47;;;0.38;;
78732;SDS011;68056;52.530;5.454;2023-07-20T10:47:09;0.93;;;0.45;;
78732;SDS011;68056;52.530;5.454;2023-07-20T10:49:57;1.30;;;0.40;;
78732;SDS011;68056;52.530;5.454;2023-07-20T10:52:23;0.35;;;0.32;;
78732;SDS011;68056;52.530;5.454;2023-07-20T10:54:48;0.68;;;0.30;;
78732;SDS011;68056;52.530;5.454;2023-07-20T10:57:21;0.65;;;0.50;;
78732;SDS011;68056;52.530;5.454;2023-07-20T11:00:06;1.08;;;0.45;;
78732;SDS011;68056;52.530;5.454;2023-07-20T11:02:48;1.05;;;0.40;;
78732;SDS011;68056;52.530;5.454;2023-07-20T11:08:03;1.85;;;0.85;;
78732;SDS011;68056;52.530;5.454;2023-07-20T11:10:29;1.10;;;0.60;;
78732;SDS011;68056;52.530;5.454;2023-07-20T11:15:45;0.45;;;0.45;;
78732;SDS011;68056;52.530;5.454;2023-07-20T11:18:12;0.93;;;0.52;;
78732;SDS011;68056;52.530;5.454;2023-07-20T11:20:38;0.95;;;0.50;;
78732;SDS011;68056;52.530;5.454;2023-07-20T11:23:04;0.70;;;0.50;;
78732;SDS011;68056;52.530;5.454;2023-07-20T11:25:40;1.63;;;0.32;;
78732;SDS011;68056;52.530;5.454;2023-07-20T11:28:06;1.80;;;0.70;;
78732;SDS011;68056;52.530;5.454;2023-07-20T11:30:33;0.75;;;0.50;;
78732;SDS011;68056;52.530;5.454;2023-07-20T11:32:59;0.57;;;0.35;;
78732;SDS011;68056;52.530;5.454;2023-07-20T11:35:25;0.77;;;0.45;;
78732;SDS011;68056;52.530;5.454;2023-07-20T11:37:51;1.60;;;0.73;;
78732;SDS011;68056;52.530;5.454;2023-07-20T11:40:16;0.65;;;0.60;;
78732;SDS011;68056;52.530;5.454;2023-07-20T11:42:42;0.70;;;0.50;;
78732;SDS011;68056;52.530;5.454;2023-07-20T11:45:08;1.02;;;0.50;;
78732;SDS011;68056;52.530;5.454;2023-07-20T11:47:34;0.55;;;0.52;;
78732;SDS011;68056;52.530;5.454;2023-07-20T11:50:07;0.85;;;0.60;;
78732;SDS011;68056;52.530;5.454;2023-07-20T11:52:33;3.08;;;0.65;;
78732;SDS011;68056;52.530;5.454;2023-07-20T11:54:59;1.58;;;0.80;;
78732;SDS011;68056;52.530;5.454;2023-07-20T11:57:24;0.80;;;0.60;;
78732;SDS011;68056;52.530;5.454;2023-07-20T12:00:02;0.88;;;0.60;;
78732;SDS011;68056;52.530;5.454;2023-07-20T12:02:34;0.47;;;0.47;;
78732;SDS011;68056;52.530;5.454;2023-07-20T12:05:00;0.80;;;0.50;;
78732;SDS011;68056;52.530;5.454;2023-07-20T12:07:27;0.70;;;0.60;;
78732;SDS011;68056;52.530;5.454;2023-07-20T12:10:06;0.80;;;0.70;;
78732;SDS011;68056;52.530;5.454;2023-07-20T12:12:33;0.90;;;0.60;;
78732;SDS011;68056;52.530;5.454;2023-07-20T12:17:51;0.50;;;0.45;;
78732;SDS011;68056;52.530;5.454;2023-07-20T12:20:28;0.55;;;0.50;;
78732;SDS011;68056;52.530;5.454;2023-07-20T12:23:02;0.90;;;0.60;;
78732;SDS011;68056;52.530;5.454;2023-07-20T12:25:52;0.95;;;0.47;;
78732;SDS011;68056;52.530;5.454;2023-07-20T12:28:19;0.85;;;0.52;;
78732;SDS011;68056;52.530;5.454;2023-07-20T12:30:45;0.63;;;0.60;;
78732;SDS011;68056;52.530;5.454;2023-07-20T12:33:13;1.15;;;0.43;;
78732;SDS011;68056;52.530;5.454;2023-07-20T12:35:42;0.70;;;0.50;;
78732;SDS011;68056;52.530;5.454;2023-07-20T12:38:10;0.90;;;0.90;;
78732;SDS011;68056;52.530;5.454;2023-07-20T12:40:36;0.88;;;0.47;;
78732;SDS011;68056;52.530;5.454;2023-07-20T12:43:02;1.33;;;0.50;;
78732;SDS011;68056;52.530;5.454;2023-07-20T12:45:28;1.50;;;0.50;;
78732;SDS011;68056;52.530;5.454;2023-07-20T12:47:54;0.68;;;0.60;;
78732;SDS011;68056;52.530;5.454;2023-07-20T12:50:20;0.85;;;0.57;;
78732;SDS011;68056;52.530;5.454;2023-07-20T12:52:45;0.75;;;0.40;;
78732;SDS011;68056;52.530;5.454;2023-07-20T12:55:11;0.50;;;0.40;;
78732;SDS011;68056;52.530;5.454;2023-07-20T12:57:37;2.40;;;0.60;;
78732;SDS011;68056;52.530;5.454;2023-07-20T13:00:04;0.80;;;0.43;;
78732;SDS011;68056;52.530;5.454;2023-07-20T13:02:33;0.57;;;0.43;;
78732;SDS011;68056;52.530;5.454;2023-07-20T13:04:58;1.05;;;0.80;;
78732;SDS011;68056;52.530;5.454;2023-07-20T13:09:57;1.00;;;0.60;;
78732;SDS011;68056;52.530;5.454;2023-07-20T13:12:25;0.45;;;0.45;;
78732;SDS011;68056;52.530;5.454;2023-07-20T13:14:55;5.28;;;1.23;;
78732;SDS011;68056;52.530;5.454;2023-07-20T13:17:22;0.65;;;0.60;;
78732;SDS011;68056;52.530;5.454;2023-07-20T13:19:48;1.45;;;0.70;;
78732;SDS011;68056;52.530;5.454;2023-07-20T13:22:14;0.93;;;0.60;;
78732;SDS011;68056;52.530;5.454;2023-07-20T13:24:40;0.63;;;0.57;;
78732;SDS011;68056;52.530;5.454;2023-07-20T13:27:06;1.35;;;0.70;;
78732;SDS011;68056;52.530;5.454;2023-07-20T13:29:31;1.52;;;0.77;;
78732;SDS011;68056;52.530;5.454;2023-07-20T13:31:57;0.73;;;0.73;;
78732;SDS011;68056;52.530;5.454;2023-07-20T13:34:25;1.02;;;0.55;;
78732;SDS011;68056;52.530;5.454;2023-07-20T13:36:51;0.88;;;0.70;;
78732;SDS011;68056;52.530;5.454;2023-07-20T13:39:16;0.73;;;0.50;;
78732;SDS011;68056;52.530;5.454;2023-07-20T13:41:42;1.77;;;0.68;;
78732;SDS011;68056;52.530;5.454;2023-07-20T13:44:08;1.42;;;0.55;;
78732;SDS011;68056;52.530;5.454;2023-07-20T13:46:34;0.90;;;0.70;;
78732;SDS011;68056;52.530;5.454;2023-07-20T13:48:59;0.65;;;0.43;;
78732;SDS011;68056;52.530;5.454;2023-07-20T13:51:25;1.17;;;0.70;;
78732;SDS011;68056;52.530;5.454;2023-07-20T13:53:51;0.90;;;0.47;;
78732;SDS011;68056;52.530;5.454;2023-07-20T13:56:17;0.98;;;0.57;;
78732;SDS011;68056;52.530;5.454;2023-07-20T13:58:42;0.70;;;0.60;;
78732;SDS011;68056;52.530;5.454;2023-07-20T14:01:08;1.75;;;0.60;;
78732;SDS011;68056;52.530;5.454;2023-07-20T14:03:34;2.75;;;0.60;;
78732;SDS011;68056;52.530;5.454;2023-07-20T14:06:00;1.67;;;0.70;;
78732;SDS011;68056;52.530;5.454;2023-07-20T14:08:26;0.85;;;0.52;;
78732;SDS011;68056;52.530;5.454;2023-07-20T14:10:52;0.80;;;0.52;;
78732;SDS011;68056;52.530;5.454;2023-07-20T14:13:18;0.70;;;0.47;;
78732;SDS011;68056;52.530;5.454;2023-07-20T14:15:43;0.63;;;0.50;;
78732;SDS011;68056;52.530;5.454;2023-07-20T14:18:09;1.05;;;0.80;;
78732;SDS011;68056;52.530;5.454;2023-07-20T14:20:35;0.68;;;0.60;;
78732;SDS011;68056;52.530;5.454;2023-07-20T14:23:00;0.77;;;0.50;;
78732;SDS011;68056;52.530;5.454;2023-07-20T14:25:26;1.23;;;0.70;;
78732;SDS011;68056;52.530;5.454;2023-07-20T14:27:52;0.50;;;0.50;;
78732;SDS011;68056;52.530;5.454;2023-07-20T14:30:17;1.15;;;0.70;;
78732;SDS011;68056;52.530;5.454;2023-07-20T14:32:43;0.57;;;0.57;;
78732;SDS011;68056;52.530;5.454;2023-07-20T14:35:08;2.05;;;0.60;;
78732;SDS011;68056;52.530;5.454;2023-07-20T14:37:34;1.17;;;0.70;;
78732;SDS011;68056;52.530;5.454;2023-07-20T14:40:00;1.35;;;0.70;;
78732;SDS011;68056;52.530;5.454;2023-07-20T14:42:30;0.80;;;0.40;;
78732;SDS011;68056;52.530;5.454;2023-07-20T14:44:57;1.15;;;0.80;;
78732;SDS011;68056;52.530;5.454;2023-07-20T14:47:23;0.90;;;0.47;;
78732;SDS011;68056;52.530;5.454;2023-07-20T14:49:48;1.08;;;0.70;;
78732;SDS011;68056;52.530;5.454;2023-07-20T14:52:14;0.57;;;0.50;;
78732;SDS011;68056;52.530;5.454;2023-07-20T14:54:40;0.75;;;0.60;;
78732;SDS011;68056;52.530;5.454;2023-07-20T14:57:06;0.88;;;0.50;;
78732;SDS011;68056;52.530;5.454;2023-07-20T14:59:39;1.42;;;0.52;;
78732;SDS011;68056;52.530;5.454;2023-07-20T15:02:06;0.75;;;0.47;;
78732;SDS011;68056;52.530;5.454;2023-07-20T15:04:32;0.57;;;0.50;;
78732;SDS011;68056;52.530;5.454;2023-07-20T15:06:58;0.82;;;0.40;;
78732;SDS011;68056;52.530;5.454;2023-07-20T15:09:23;1.13;;;0.70;;
78732;SDS011;68056;52.530;5.454;2023-07-20T15:11:49;0.60;;;0.50;;
78732;SDS011;68056;52.530;5.454;2023-07-20T15:14:15;0.73;;;0.60;;